Time;durP1;ratioP1;P1;durP2;ratioP2;P2;SDS_P1;SDS_P2;PMS_P1;PMS_P2;Temp;Humidity;BMP_temperature;BMP_pressure;BME280_temperature;BME280_humidity;BME280_pressure;Samples;Min_cycle;Max_cycle;Signal;HPM_P1;HPM_P2
2023/03/04 14:04:01;;;;;;;2.47;1.07;;;10.10;99.90;;;;;;1798256;23;20237;-74
2023/03/04 14:06:31;;;;;;;1.67;1.10;;;10.00;99.90;;;;;;4887345;29;20218;-75
2023/03/04 14:08:58;;;;;;;2.93;1.00;;;9.80;99.90;;;;;;4889603;29;20211;-73
2023/03/04 14:11:30;;;;;;;7.03;1.10;;;9.70;99.90;;;;;;4898956;29;20234;-75
2023/03/04 14:14:00;;;;;;;1.37;0.90;;;9.50;99.90;;;;;;4898921;29;20270;-74
2023/03/04 14:16:28;;;;;;;0.93;0.80;;;9.50;99.90;;;;;;4898968;29;20662;-75
2023/03/04 14:19:00;;;;;;;2.83;0.70;;;9.30;99.90;;;;;;4899080;29;20207;-75
2023/03/04 14:21:30;;;;;;;2.13;0.90;;;9.30;99.90;;;;;;4893557;29;20226;-75
2023/03/04 14:24:05;;;;;;;1.40;1.13;;;9.20;99.90;;;;;;4897733;29;20213;-82
2023/03/04 14:26:32;;;;;;;1.93;0.83;;;9.20;99.90;;;;;;4898008;29;20220;-75
2023/03/04 14:29:02;;;;;;;1.90;1.03;;;9.20;99.90;;;;;;4897289;29;20218;-74
2023/03/04 14:31:34;;;;;;;1.67;0.80;;;9.20;99.90;;;;;;4893693;29;20242;-75
2023/03/04 14:34:01;;;;;;;0.80;0.80;;;9.30;99.90;;;;;;4896942;29;20210;-76
2023/03/04 14:36:32;;;;;;;2.37;0.90;;;9.50;99.90;;;;;;4897190;29;20214;-76
2023/03/04 14:39:01;;;;;;;1.70;1.00;;;9.40;99.90;;;;;;4897210;29;20214;-76
2023/03/04 14:41:31;;;;;;;2.37;0.90;;;9.20;99.90;;;;;;4896899;29;20238;-76
2023/03/04 14:44:08;;;;;;;2.43;1.27;;;9.20;99.90;;;;;;4896036;29;20463;-76
2023/03/04 14:46:39;;;;;;;1.43;0.90;;;9.10;99.90;;;;;;4897023;29;20245;-77
2023/03/04 14:49:10;;;;;;;2.67;1.10;;;9.30;99.90;;;;;;4897473;29;20249;-75
2023/03/04 14:51:44;;;;;;;1.47;0.83;;;9.20;99.90;;;;;;4895775;29;20230;-76
2023/03/04 14:54:31;;;;;;;2.33;0.90;;;9.20;99.90;;;;;;4896968;29;20210;-76
2023/03/04 14:56:59;;;;;;;6.27;1.30;;;9.40;99.90;;;;;;4896812;29;20213;-77
2023/03/04 14:59:32;;;;;;;3.33;1.00;;;9.50;99.90;;;;;;4896460;29;20210;-74
2023/03/04 15:02:29;;;;;;;0.80;0.80;;;9.70;99.90;;;;;;4891418;29;20317;-74
2023/03/04 15:04:58;;;;;;;1.33;0.67;;;9.50;99.90;;;;;;4896559;29;20588;-75
2023/03/04 15:07:31;;;;;;;2.07;1.00;;;9.40;99.90;;;;;;4896745;29;20296;-77
2023/03/04 15:09:59;;;;;;;3.00;1.10;;;9.50;99.90;;;;;;4896523;29;20211;-77
2023/03/04 15:12:28;;;;;;;2.73;1.10;;;9.40;99.90;;;;;;4895646;29;20332;-76
2023/03/04 15:14:57;;;;;;;4.00;1.10;;;9.50;99.90;;;;;;4896549;29;20210;-75
2023/03/04 15:17:27;;;;;;;1.87;0.83;;;9.40;99.90;;;;;;4895965;29;20218;-75
2023/03/04 15:20:03;;;;;;;1.67;1.10;;;9.40;99.90;;;;;;4891793;29;20214;-77
2023/03/04 15:22:32;;;;;;;2.43;0.97;;;9.30;99.90;;;;;;4895874;29;20313;-77
2023/03/04 15:24:59;;;;;;;1.93;0.90;;;9.10;99.90;;;;;;4895961;29;20218;-76
2023/03/04 15:27:28;;;;;;;2.20;0.97;;;9.00;99.90;;;;;;4895928;29;20635;-76
2023/03/04 15:29:58;;;;;;;1.53;0.90;;;9.10;99.90;;;;;;4896590;29;20670;-76
2023/03/04 15:32:25;;;;;;;1.70;1.00;;;9.20;99.90;;;;;;4896270;29;20246;-76
2023/03/04 15:34:52;;;;;;;1.17;0.70;;;9.20;99.90;;;;;;4895829;29;20218;-76
2023/03/04 15:37:22;;;;;;;1.70;0.70;;;9.10;99.90;;;;;;4896303;29;20215;-76
2023/03/04 15:39:51;;;;;;;1.07;0.80;;;9.00;99.90;;;;;;4896506;29;20217;-76
2023/03/04 15:42:18;;;;;;;0.60;0.50;;;9.20;99.90;;;;;;4895926;29;20282;-77
2023/03/04 15:44:45;;;;;;;1.40;0.80;;;9.10;99.90;;;;;;4896222;29;20228;-76
2023/03/04 15:47:12;;;;;;;1.90;0.67;;;9.10;99.90;;;;;;4896256;29;20295;-77
2023/03/04 15:49:40;;;;;;;0.93;0.60;;;9.10;99.90;;;;;;4895601;29;20221;-73
2023/03/04 15:52:12;;;;;;;1.73;0.80;;;9.20;99.90;;;;;;4895885;29;20234;-76
2023/03/04 15:54:40;;;;;;;2.10;0.60;;;9.30;99.90;;;;;;4898282;29;20289;-74
2023/03/04 15:57:16;;;;;;;3.93;0.80;;;9.40;99.90;;;;;;4899563;29;20202;-75
2023/03/04 15:59:43;;;;;;;1.40;0.77;;;9.60;99.90;;;;;;4900044;29;20304;-76
2023/03/04 16:02:17;;;;;;;1.33;0.70;;;9.50;99.90;;;;;;4899604;29;20738;-75
2023/03/04 16:04:44;;;;;;;4.50;0.77;;;9.40;99.90;;;;;;4899633;29;20218;-75
2023/03/04 16:07:17;;;;;;;1.63;0.70;;;9.30;99.90;;;;;;4899908;29;20297;-75
2023/03/04 16:09:44;;;;;;;1.83;0.70;;;9.40;99.90;;;;;;4895977;29;20217;-74
2023/03/04 16:12:13;;;;;;;2.40;1.33;;;9.40;99.90;;;;;;4898391;29;20276;-75
2023/03/04 16:14:41;;;;;;;1.07;0.67;;;9.40;99.90;;;;;;4899946;29;20681;-74
2023/03/04 16:17:09;;;;;;;1.17;0.70;;;9.40;99.90;;;;;;4899445;29;20221;-74
2023/03/04 16:19:36;;;;;;;6.00;0.90;;;9.30;99.90;;;;;;4899316;29;20225;-76
